This is the latest recevied weather packets stored in our database for station/object PACCTY. If no packets are shown the sender has not sent any weather packets the latest 10 day(s).
| Time | Temp. | Humidity | Pressure | Rain* | Wind** | Luminosity | Snow |
|---|---|---|---|---|---|---|---|
| 1777509007 | 13.33° C | 78% | 1019.3 hPa | 0 mm | - | - | - |
| 1777508708 | 13.89° C | 78% | 1019.3 hPa | 0 mm | - | - | - |
| 1777508407 | 13.89° C | 77% | 1019.3 hPa | 0 mm | - | - | - |
| 1777507507 | 13.89° C | 76% | 1019.3 hPa | 0 mm | - | - | - |
| 1777507208 | 14.44° C | 75% | 1019.3 hPa | 0 mm | - | - | - |
| 1777506607 | 14.44° C | 74% | 1019.4 hPa | 0 mm | - | - | - |
| 1777502409 | 15° C | 69% | 1020.4 hPa | 0 mm | - | - | - |
| 1777501206 | 15° C | 67% | 1020.8 hPa | 0 mm | - | - | - |
| 1777499783 | 15° C | 69% | 1020.9 hPa | 0 mm | - | - | - |
| 1777499708 | 15° C | 69% | 1020.9 hPa | 0 mm | - | - | - |
| 1777496108 | 15° C | 67% | 1021.3 hPa | 0 mm | - | - | - |
| 1777493707 | 15.56° C | 65% | 1021.4 hPa | 0 mm | - | - | - |
| 1777491308 | 15° C | 67% | 1021.8 hPa | 0 mm | - | - | - |
| 1777490708 | 15° C | 66% | 1021.8 hPa | 0 mm | - | - | - |
| 1777488908 | 15.56° C | 64% | 1022.1 hPa | 0 mm | - | - | - |
| 1777486807 | 14.44° C | 69% | 1022.4 hPa | 0 mm | - | - | - |
| 1777485355 | 13.89° C | 69% | 1022.6 hPa | 0 mm | - | - | - |
| 1777479607 | 8.33° C | 90% | 1023.4 hPa | 0 mm | - | - | - |
| 1777476311 | 6.11° C | 96% | 1023.7 hPa | 0 mm | - | - | - |
| 1777466106 | 4.44° C | 96% | 1023.7 hPa | 0 mm | - | - | - |
| 1777465806 | 4.44° C | 96% | 1023.7 hPa | 0 mm | - | - | - |
| 1777465207 | 4.44° C | 96% | 1023.6 hPa | 0 mm | - | - | - |
| 1777464906 | 4.44° C | 96% | 1023.6 hPa | 0 mm | - | - | - |
| 1777462507 | 5° C | 96% | 1023.5 hPa | 0 mm | - | - | - |
| 1777461608 | 5° C | 96% | 1023.4 hPa | 0 mm | - | - | - |
* Rain latest hour (hover to see other rain measurements)
** Current wind speed in m/s (hover to see current wind gust speed)